sensor_id;sensor_type;location;lat;lon;timestamp;P1;durP1;ratioP1;P2;durP2;ratioP2
23388;SDS011;11867;51.198;11.966;2022-08-19T00:04:39;22.95;;;19.30;;
23388;SDS011;11867;51.198;11.966;2022-08-19T00:09:42;25.83;;;21.55;;
23388;SDS011;11867;51.198;11.966;2022-08-19T00:14:46;25.15;;;20.45;;
23388;SDS011;11867;51.198;11.966;2022-08-19T00:24:51;26.77;;;20.98;;
23388;SDS011;11867;51.198;11.966;2022-08-19T00:29:56;23.73;;;20.33;;
23388;SDS011;11867;51.198;11.966;2022-08-19T00:34:59;29.65;;;21.38;;
23388;SDS011;11867;51.198;11.966;2022-08-19T00:40:06;20.35;;;18.00;;
23388;SDS011;11867;51.198;11.966;2022-08-19T00:50:17;24.27;;;20.50;;
23388;SDS011;11867;51.198;11.966;2022-08-19T00:55:22;24.25;;;21.02;;
23388;SDS011;11867;51.198;11.966;2022-08-19T01:00:30;23.00;;;20.33;;
23388;SDS011;11867;51.198;11.966;2022-08-19T01:05:33;23.65;;;19.50;;
23388;SDS011;11867;51.198;11.966;2022-08-19T01:10:38;25.38;;;21.33;;
23388;SDS011;11867;51.198;11.966;2022-08-19T01:15:50;24.75;;;19.02;;
23388;SDS011;11867;51.198;11.966;2022-08-19T01:20:58;24.65;;;21.30;;
23388;SDS011;11867;51.198;11.966;2022-08-19T01:26:05;24.55;;;21.52;;
23388;SDS011;11867;51.198;11.966;2022-08-19T01:31:09;28.67;;;22.45;;
23388;SDS011;11867;51.198;11.966;2022-08-19T01:36:28;28.77;;;22.88;;
23388;SDS011;11867;51.198;11.966;2022-08-19T01:41:35;28.20;;;23.40;;
23388;SDS011;11867;51.198;11.966;2022-08-19T01:46:38;25.15;;;22.38;;
23388;SDS011;11867;51.198;11.966;2022-08-19T01:51:42;25.92;;;22.98;;
23388;SDS011;11867;51.198;11.966;2022-08-19T01:56:46;26.70;;;23.83;;
23388;SDS011;11867;51.198;11.966;2022-08-19T02:01:48;25.58;;;22.88;;
23388;SDS011;11867;51.198;11.966;2022-08-19T02:06:51;26.63;;;23.55;;
23388;SDS011;11867;51.198;11.966;2022-08-19T02:11:55;28.77;;;23.42;;
23388;SDS011;11867;51.198;11.966;2022-08-19T02:16:58;29.77;;;23.50;;
23388;SDS011;11867;51.198;11.966;2022-08-19T02:22:00;27.50;;;22.90;;
23388;SDS011;11867;51.198;11.966;2022-08-19T02:27:04;29.98;;;25.38;;
23388;SDS011;11867;51.198;11.966;2022-08-19T02:32:07;28.02;;;25.02;;
23388;SDS011;11867;51.198;11.966;2022-08-19T02:37:10;30.23;;;25.83;;
23388;SDS011;11867;51.198;11.966;2022-08-19T02:42:36;31.88;;;25.77;;
23388;SDS011;11867;51.198;11.966;2022-08-19T02:47:39;33.85;;;27.60;;
23388;SDS011;11867;51.198;11.966;2022-08-19T02:52:41;33.50;;;28.05;;
23388;SDS011;11867;51.198;11.966;2022-08-19T02:57:45;35.05;;;29.20;;
23388;SDS011;11867;51.198;11.966;2022-08-19T03:02:48;29.70;;;24.92;;
23388;SDS011;11867;51.198;11.966;2022-08-19T03:07:50;36.00;;;27.85;;
23388;SDS011;11867;51.198;11.966;2022-08-19T03:12:54;30.58;;;25.83;;
23388;SDS011;11867;51.198;11.966;2022-08-19T03:17:57;33.05;;;26.58;;
23388;SDS011;11867;51.198;11.966;2022-08-19T03:22:59;32.15;;;27.52;;
23388;SDS011;11867;51.198;11.966;2022-08-19T03:28:04;30.43;;;26.53;;
23388;SDS011;11867;51.198;11.966;2022-08-19T03:33:07;32.17;;;28.73;;
23388;SDS011;11867;51.198;11.966;2022-08-19T03:38:18;26.98;;;24.00;;
23388;SDS011;11867;51.198;11.966;2022-08-19T03:43:22;32.33;;;28.88;;
23388;SDS011;11867;51.198;11.966;2022-08-19T03:53:27;35.38;;;29.67;;
23388;SDS011;11867;51.198;11.966;2022-08-19T03:58:33;33.88;;;30.23;;
23388;SDS011;11867;51.198;11.966;2022-08-19T04:08:39;37.50;;;30.38;;
23388;SDS011;11867;51.198;11.966;2022-08-19T04:13:43;39.30;;;32.28;;
23388;SDS011;11867;51.198;11.966;2022-08-19T04:18:46;35.03;;;30.08;;
23388;SDS011;11867;51.198;11.966;2022-08-19T04:23:50;37.92;;;31.80;;
23388;SDS011;11867;51.198;11.966;2022-08-19T04:28:57;34.10;;;29.25;;
23388;SDS011;11867;51.198;11.966;2022-08-19T04:34:00;34.92;;;29.90;;
23388;SDS011;11867;51.198;11.966;2022-08-19T04:39:06;40.00;;;32.67;;
23388;SDS011;11867;51.198;11.966;2022-08-19T04:44:12;36.65;;;30.98;;
23388;SDS011;11867;51.198;11.966;2022-08-19T04:49:15;34.65;;;27.05;;
23388;SDS011;11867;51.198;11.966;2022-08-19T04:54:19;29.02;;;25.50;;
23388;SDS011;11867;51.198;11.966;2022-08-19T04:59:40;35.58;;;29.17;;
23388;SDS011;11867;51.198;11.966;2022-08-19T05:04:43;34.55;;;28.77;;
23388;SDS011;11867;51.198;11.966;2022-08-19T05:09:45;30.10;;;26.52;;
23388;SDS011;11867;51.198;11.966;2022-08-19T05:15:03;31.33;;;25.50;;
23388;SDS011;11867;51.198;11.966;2022-08-19T05:20:07;31.40;;;27.60;;
23388;SDS011;11867;51.198;11.966;2022-08-19T05:25:28;32.63;;;26.85;;
23388;SDS011;11867;51.198;11.966;2022-08-19T05:30:32;31.92;;;27.55;;
23388;SDS011;11867;51.198;11.966;2022-08-19T05:35:47;31.13;;;27.83;;
23388;SDS011;11867;51.198;11.966;2022-08-19T05:40:53;30.25;;;25.35;;
23388;SDS011;11867;51.198;11.966;2022-08-19T05:45:57;31.08;;;27.45;;
23388;SDS011;11867;51.198;11.966;2022-08-19T05:51:03;31.25;;;27.35;;
23388;SDS011;11867;51.198;11.966;2022-08-19T05:56:07;28.55;;;25.23;;
23388;SDS011;11867;51.198;11.966;2022-08-19T06:01:13;32.30;;;26.65;;
23388;SDS011;11867;51.198;11.966;2022-08-19T06:06:18;35.75;;;27.05;;
23388;SDS011;11867;51.198;11.966;2022-08-19T06:11:22;30.67;;;25.88;;
23388;SDS011;11867;51.198;11.966;2022-08-19T06:16:27;30.88;;;25.95;;
23388;SDS011;11867;51.198;11.966;2022-08-19T06:21:33;34.45;;;26.83;;
23388;SDS011;11867;51.198;11.966;2022-08-19T06:26:39;34.55;;;26.00;;
23388;SDS011;11867;51.198;11.966;2022-08-19T06:31:51;32.47;;;25.17;;
23388;SDS011;11867;51.198;11.966;2022-08-19T06:36:56;27.88;;;24.73;;
23388;SDS011;11867;51.198;11.966;2022-08-19T06:42:02;27.83;;;24.10;;
23388;SDS011;11867;51.198;11.966;2022-08-19T06:47:13;29.80;;;24.45;;
23388;SDS011;11867;51.198;11.966;2022-08-19T06:52:25;30.45;;;22.45;;
23388;SDS011;11867;51.198;11.966;2022-08-19T06:57:28;32.23;;;23.97;;
23388;SDS011;11867;51.198;11.966;2022-08-19T07:02:35;28.38;;;23.45;;
23388;SDS011;11867;51.198;11.966;2022-08-19T07:07:38;23.55;;;20.50;;
23388;SDS011;11867;51.198;11.966;2022-08-19T07:12:47;28.48;;;22.30;;
23388;SDS011;11867;51.198;11.966;2022-08-19T07:17:52;27.30;;;23.95;;
23388;SDS011;11867;51.198;11.966;2022-08-19T07:22:55;25.48;;;20.92;;
23388;SDS011;11867;51.198;11.966;2022-08-19T07:27:58;24.70;;;20.35;;
23388;SDS011;11867;51.198;11.966;2022-08-19T07:33:03;22.67;;;19.63;;
23388;SDS011;11867;51.198;11.966;2022-08-19T07:38:05;20.95;;;18.63;;
23388;SDS011;11867;51.198;11.966;2022-08-19T07:43:08;23.17;;;19.02;;
23388;SDS011;11867;51.198;11.966;2022-08-19T07:48:19;26.30;;;20.27;;
23388;SDS011;11867;51.198;11.966;2022-08-19T07:58:24;24.17;;;18.30;;
23388;SDS011;11867;51.198;11.966;2022-08-19T08:03:28;23.05;;;19.65;;
23388;SDS011;11867;51.198;11.966;2022-08-19T08:08:45;21.27;;;17.52;;
23388;SDS011;11867;51.198;11.966;2022-08-19T08:14:07;21.42;;;18.35;;
23388;SDS011;11867;51.198;11.966;2022-08-19T08:19:32;20.07;;;16.97;;
23388;SDS011;11867;51.198;11.966;2022-08-19T08:24:35;21.92;;;17.05;;
23388;SDS011;11867;51.198;11.966;2022-08-19T08:29:40;22.45;;;16.15;;
23388;SDS011;11867;51.198;11.966;2022-08-19T08:34:44;18.23;;;16.25;;
23388;SDS011;11867;51.198;11.966;2022-08-19T08:39:51;17.45;;;14.82;;
23388;SDS011;11867;51.198;11.966;2022-08-19T08:44:57;18.73;;;14.07;;
23388;SDS011;11867;51.198;11.966;2022-08-19T08:50:04;16.92;;;14.32;;
23388;SDS011;11867;51.198;11.966;2022-08-19T08:55:10;18.45;;;15.30;;
23388;SDS011;11867;51.198;11.966;2022-08-19T09:00:18;13.48;;;11.98;;
23388;SDS011;11867;51.198;11.966;2022-08-19T09:05:27;13.38;;;11.43;;
23388;SDS011;11867;51.198;11.966;2022-08-19T09:10:49;14.90;;;12.47;;
23388;SDS011;11867;51.198;11.966;2022-08-19T09:15:56;12.35;;;11.15;;
23388;SDS011;11867;51.198;11.966;2022-08-19T09:21:04;11.68;;;10.48;;
23388;SDS011;11867;51.198;11.966;2022-08-19T09:26:07;12.88;;;10.57;;
23388;SDS011;11867;51.198;11.966;2022-08-19T09:31:12;12.48;;;11.18;;
23388;SDS011;11867;51.198;11.966;2022-08-19T09:36:19;13.75;;;11.35;;
23388;SDS011;11867;51.198;11.966;2022-08-19T09:41:35;13.77;;;12.35;;
23388;SDS011;11867;51.198;11.966;2022-08-19T09:46:38;16.05;;;13.18;;
23388;SDS011;11867;51.198;11.966;2022-08-19T09:51:42;13.98;;;12.50;;
23388;SDS011;11867;51.198;11.966;2022-08-19T09:56:51;15.65;;;13.48;;
23388;SDS011;11867;51.198;11.966;2022-08-19T10:01:54;24.30;;;14.57;;
23388;SDS011;11867;51.198;11.966;2022-08-19T10:07:05;17.85;;;13.88;;
23388;SDS011;11867;51.198;11.966;2022-08-19T10:12:10;17.77;;;13.95;;
23388;SDS011;11867;51.198;11.966;2022-08-19T10:17:18;16.58;;;13.10;;
23388;SDS011;11867;51.198;11.966;2022-08-19T10:22:27;15.50;;;12.48;;
23388;SDS011;11867;51.198;11.966;2022-08-19T10:27:31;11.82;;;10.57;;
23388;SDS011;11867;51.198;11.966;2022-08-19T10:32:35;12.80;;;10.13;;
23388;SDS011;11867;51.198;11.966;2022-08-19T10:37:47;10.30;;;9.20;;
23388;SDS011;11867;51.198;11.966;2022-08-19T10:43:02;10.52;;;9.35;;
23388;SDS011;11867;51.198;11.966;2022-08-19T10:48:04;13.25;;;10.05;;
23388;SDS011;11867;51.198;11.966;2022-08-19T10:53:17;14.15;;;10.05;;
23388;SDS011;11867;51.198;11.966;2022-08-19T10:58:23;12.98;;;10.93;;
23388;SDS011;11867;51.198;11.966;2022-08-19T11:03:27;12.38;;;11.07;;
23388;SDS011;11867;51.198;11.966;2022-08-19T11:08:32;14.20;;;11.88;;
23388;SDS011;11867;51.198;11.966;2022-08-19T11:13:37;13.80;;;12.32;;
23388;SDS011;11867;51.198;11.966;2022-08-19T11:18:43;14.00;;;11.32;;
23388;SDS011;11867;51.198;11.966;2022-08-19T11:23:51;13.38;;;11.65;;
23388;SDS011;11867;51.198;11.966;2022-08-19T11:28:55;11.02;;;8.90;;
23388;SDS011;11867;51.198;11.966;2022-08-19T11:34:01;11.23;;;10.02;;
23388;SDS011;11867;51.198;11.966;2022-08-19T11:39:09;10.50;;;9.38;;
23388;SDS011;11867;51.198;11.966;2022-08-19T11:44:12;10.52;;;9.13;;
23388;SDS011;11867;51.198;11.966;2022-08-19T11:49:17;9.05;;;8.13;;
23388;SDS011;11867;51.198;11.966;2022-08-19T11:54:23;8.48;;;7.30;;
23388;SDS011;11867;51.198;11.966;2022-08-19T11:59:26;7.80;;;6.55;;
23388;SDS011;11867;51.198;11.966;2022-08-19T12:04:30;8.25;;;6.47;;
23388;SDS011;11867;51.198;11.966;2022-08-19T12:09:34;6.70;;;5.35;;
23388;SDS011;11867;51.198;11.966;2022-08-19T12:14:42;5.30;;;4.80;;
23388;SDS011;11867;51.198;11.966;2022-08-19T12:19:45;6.70;;;4.88;;
23388;SDS011;11867;51.198;11.966;2022-08-19T12:24:49;6.07;;;5.45;;
23388;SDS011;11867;51.198;11.966;2022-08-19T12:29:54;5.30;;;4.80;;
23388;SDS011;11867;51.198;11.966;2022-08-19T12:34:57;5.10;;;4.60;;
23388;SDS011;11867;51.198;11.966;2022-08-19T12:40:01;4.63;;;4.22;;
23388;SDS011;11867;51.198;11.966;2022-08-19T12:45:04;5.35;;;4.43;;
23388;SDS011;11867;51.198;11.966;2022-08-19T12:50:08;4.93;;;4.35;;
23388;SDS011;11867;51.198;11.966;2022-08-19T12:55:15;6.47;;;4.05;;
23388;SDS011;11867;51.198;11.966;2022-08-19T13:00:20;5.70;;;4.43;;
23388;SDS011;11867;51.198;11.966;2022-08-19T13:05:25;5.07;;;4.55;;
23388;SDS011;11867;51.198;11.966;2022-08-19T13:10:33;4.80;;;4.40;;
23388;SDS011;11867;51.198;11.966;2022-08-19T13:15:40;5.95;;;5.30;;
23388;SDS011;11867;51.198;11.966;2022-08-19T13:20:49;5.40;;;4.90;;
23388;SDS011;11867;51.198;11.966;2022-08-19T13:25:58;6.65;;;5.63;;
23388;SDS011;11867;51.198;11.966;2022-08-19T13:31:01;7.05;;;6.43;;
23388;SDS011;11867;51.198;11.966;2022-08-19T13:36:21;6.05;;;5.55;;
23388;SDS011;11867;51.198;11.966;2022-08-19T13:41:25;9.38;;;7.00;;
23388;SDS011;11867;51.198;11.966;2022-08-19T13:46:28;9.98;;;8.05;;
23388;SDS011;11867;51.198;11.966;2022-08-19T13:51:31;8.32;;;7.28;;
23388;SDS011;11867;51.198;11.966;2022-08-19T13:56:38;9.50;;;8.50;;
23388;SDS011;11867;51.198;11.966;2022-08-19T14:01:42;8.30;;;7.35;;
23388;SDS011;11867;51.198;11.966;2022-08-19T14:06:47;9.07;;;8.18;;
23388;SDS011;11867;51.198;11.966;2022-08-19T14:11:51;6.20;;;5.60;;
23388;SDS011;11867;51.198;11.966;2022-08-19T14:21:56;5.53;;;4.88;;
23388;SDS011;11867;51.198;11.966;2022-08-19T14:27:00;6.15;;;5.32;;
23388;SDS011;11867;51.198;11.966;2022-08-19T14:32:05;6.45;;;5.22;;
23388;SDS011;11867;51.198;11.966;2022-08-19T14:37:11;5.65;;;5.15;;
23388;SDS011;11867;51.198;11.966;2022-08-19T14:47:19;7.27;;;6.57;;
23388;SDS011;11867;51.198;11.966;2022-08-19T14:57:27;9.20;;;7.88;;
23388;SDS011;11867;51.198;11.966;2022-08-19T15:07:35;8.35;;;7.10;;
23388;SDS011;11867;51.198;11.966;2022-08-19T15:12:39;9.52;;;7.05;;
23388;SDS011;11867;51.198;11.966;2022-08-19T15:17:43;9.05;;;8.05;;
23388;SDS011;11867;51.198;11.966;2022-08-19T15:27:51;9.65;;;7.80;;
23388;SDS011;11867;51.198;11.966;2022-08-19T15:32:54;6.93;;;6.32;;
23388;SDS011;11867;51.198;11.966;2022-08-19T15:37:58;8.60;;;7.72;;
23388;SDS011;11867;51.198;11.966;2022-08-19T15:43:02;10.80;;;7.72;;
23388;SDS011;11867;51.198;11.966;2022-08-19T15:53:08;8.70;;;7.25;;
23388;SDS011;11867;51.198;11.966;2022-08-19T15:58:13;8.63;;;7.45;;
23388;SDS011;11867;51.198;11.966;2022-08-19T16:03:33;9.13;;;8.25;;
23388;SDS011;11867;51.198;11.966;2022-08-19T16:08:54;9.05;;;8.15;;
23388;SDS011;11867;51.198;11.966;2022-08-19T16:14:00;10.20;;;9.10;;
23388;SDS011;11867;51.198;11.966;2022-08-19T16:19:05;11.13;;;9.18;;
23388;SDS011;11867;51.198;11.966;2022-08-19T16:24:12;9.63;;;8.63;;
23388;SDS011;11867;51.198;11.966;2022-08-19T16:29:18;10.07;;;9.07;;
23388;SDS011;11867;51.198;11.966;2022-08-19T16:34:39;10.88;;;9.77;;
23388;SDS011;11867;51.198;11.966;2022-08-19T16:39:42;9.88;;;8.85;;
23388;SDS011;11867;51.198;11.966;2022-08-19T16:44:47;12.18;;;9.48;;
23388;SDS011;11867;51.198;11.966;2022-08-19T16:49:49;10.18;;;9.18;;
23388;SDS011;11867;51.198;11.966;2022-08-19T16:54:55;12.23;;;9.18;;
23388;SDS011;11867;51.198;11.966;2022-08-19T16:59:59;10.57;;;9.48;;
23388;SDS011;11867;51.198;11.966;2022-08-19T17:05:05;10.38;;;9.38;;
23388;SDS011;11867;51.198;11.966;2022-08-19T17:10:09;11.48;;;9.02;;
23388;SDS011;11867;51.198;11.966;2022-08-19T17:15:13;10.05;;;9.05;;
23388;SDS011;11867;51.198;11.966;2022-08-19T17:25:18;10.15;;;9.15;;
23388;SDS011;11867;51.198;11.966;2022-08-19T17:30:22;9.57;;;8.63;;
23388;SDS011;11867;51.198;11.966;2022-08-19T17:35:26;10.38;;;8.38;;
23388;SDS011;11867;51.198;11.966;2022-08-19T17:40:28;9.45;;;8.55;;
23388;SDS011;11867;51.198;11.966;2022-08-19T17:45:33;11.13;;;9.20;;
23388;SDS011;11867;51.198;11.966;2022-08-19T17:50:36;8.57;;;7.78;;
23388;SDS011;11867;51.198;11.966;2022-08-19T17:55:40;9.77;;;8.88;;
23388;SDS011;11867;51.198;11.966;2022-08-19T18:00:49;9.80;;;8.80;;
23388;SDS011;11867;51.198;11.966;2022-08-19T18:05:54;9.38;;;8.45;;
23388;SDS011;11867;51.198;11.966;2022-08-19T18:10:58;9.27;;;8.38;;
23388;SDS011;11867;51.198;11.966;2022-08-19T18:16:03;10.10;;;8.27;;
23388;SDS011;11867;51.198;11.966;2022-08-19T18:21:07;9.35;;;8.35;;
23388;SDS011;11867;51.198;11.966;2022-08-19T18:26:10;10.15;;;9.23;;
23388;SDS011;11867;51.198;11.966;2022-08-19T18:31:14;9.00;;;8.10;;
23388;SDS011;11867;51.198;11.966;2022-08-19T18:36:17;11.80;;;8.63;;
23388;SDS011;11867;51.198;11.966;2022-08-19T18:41:40;10.93;;;8.57;;
23388;SDS011;11867;51.198;11.966;2022-08-19T18:47:02;11.23;;;8.70;;
23388;SDS011;11867;51.198;11.966;2022-08-19T18:52:22;9.68;;;8.75;;
23388;SDS011;11867;51.198;11.966;2022-08-19T18:57:27;8.77;;;7.90;;
23388;SDS011;11867;51.198;11.966;2022-08-19T19:02:34;9.43;;;8.52;;
23388;SDS011;11867;51.198;11.966;2022-08-19T19:07:39;11.50;;;8.75;;
23388;SDS011;11867;51.198;11.966;2022-08-19T19:12:42;10.35;;;8.95;;
23388;SDS011;11867;51.198;11.966;2022-08-19T19:17:46;9.05;;;8.00;;
23388;SDS011;11867;51.198;11.966;2022-08-19T19:22:50;8.82;;;7.95;;
23388;SDS011;11867;51.198;11.966;2022-08-19T19:27:56;8.95;;;8.05;;
23388;SDS011;11867;51.198;11.966;2022-08-19T19:33:00;9.65;;;8.63;;
23388;SDS011;11867;51.198;11.966;2022-08-19T19:38:03;9.27;;;8.27;;
23388;SDS011;11867;51.198;11.966;2022-08-19T19:43:08;8.93;;;8.02;;
23388;SDS011;11867;51.198;11.966;2022-08-19T19:48:12;10.65;;;8.15;;
23388;SDS011;11867;51.198;11.966;2022-08-19T19:53:16;7.75;;;6.95;;
23388;SDS011;11867;51.198;11.966;2022-08-19T19:58:19;7.65;;;6.95;;
23388;SDS011;11867;51.198;11.966;2022-08-19T20:03:30;8.02;;;7.28;;
23388;SDS011;11867;51.198;11.966;2022-08-19T20:13:53;8.40;;;7.45;;
23388;SDS011;11867;51.198;11.966;2022-08-19T20:18:57;8.65;;;6.93;;
23388;SDS011;11867;51.198;11.966;2022-08-19T20:24:02;7.43;;;6.68;;
23388;SDS011;11867;51.198;11.966;2022-08-19T20:29:10;9.13;;;7.15;;
23388;SDS011;11867;51.198;11.966;2022-08-19T20:34:34;9.48;;;7.30;;
23388;SDS011;11867;51.198;11.966;2022-08-19T20:39:38;7.75;;;7.00;;
23388;SDS011;11867;51.198;11.966;2022-08-19T20:44:40;10.60;;;7.65;;
23388;SDS011;11867;51.198;11.966;2022-08-19T20:49:44;8.02;;;7.25;;
23388;SDS011;11867;51.198;11.966;2022-08-19T20:59:49;8.98;;;7.90;;
23388;SDS011;11867;51.198;11.966;2022-08-19T21:04:53;10.82;;;7.50;;
23388;SDS011;11867;51.198;11.966;2022-08-19T21:10:00;8.45;;;7.65;;
23388;SDS011;11867;51.198;11.966;2022-08-19T21:15:05;9.13;;;8.23;;
23388;SDS011;11867;51.198;11.966;2022-08-19T21:20:11;9.88;;;8.00;;
23388;SDS011;11867;51.198;11.966;2022-08-19T21:30:17;12.02;;;8.60;;
23388;SDS011;11867;51.198;11.966;2022-08-19T21:35:21;11.63;;;9.32;;
23388;SDS011;11867;51.198;11.966;2022-08-19T21:40:24;10.88;;;9.40;;
23388;SDS011;11867;51.198;11.966;2022-08-19T21:45:27;9.80;;;8.90;;
23388;SDS011;11867;51.198;11.966;2022-08-19T21:50:31;9.90;;;8.90;;
23388;SDS011;11867;51.198;11.966;2022-08-19T21:55:34;9.20;;;8.30;;
23388;SDS011;11867;51.198;11.966;2022-08-19T22:00:36;11.32;;;9.13;;
23388;SDS011;11867;51.198;11.966;2022-08-19T22:05:41;10.98;;;9.82;;
23388;SDS011;11867;51.198;11.966;2022-08-19T22:10:44;13.30;;;9.43;;
23388;SDS011;11867;51.198;11.966;2022-08-19T22:15:48;12.75;;;10.43;;
23388;SDS011;11867;51.198;11.966;2022-08-19T22:20:53;10.65;;;9.57;;
23388;SDS011;11867;51.198;11.966;2022-08-19T22:25:56;10.38;;;9.10;;
23388;SDS011;11867;51.198;11.966;2022-08-19T22:30:59;10.15;;;9.13;;
23388;SDS011;11867;51.198;11.966;2022-08-19T22:36:05;11.23;;;9.38;;
23388;SDS011;11867;51.198;11.966;2022-08-19T22:41:08;9.57;;;8.68;;
23388;SDS011;11867;51.198;11.966;2022-08-19T22:46:11;10.53;;;8.87;;
23388;SDS011;11867;51.198;11.966;2022-08-19T22:51:19;13.52;;;8.23;;
23388;SDS011;11867;51.198;11.966;2022-08-19T22:56:39;16.67;;;9.68;;
23388;SDS011;11867;51.198;11.966;2022-08-19T23:01:43;11.02;;;9.18;;
23388;SDS011;11867;51.198;11.966;2022-08-19T23:06:47;11.95;;;9.02;;
23388;SDS011;11867;51.198;11.966;2022-08-19T23:11:53;11.70;;;9.18;;
23388;SDS011;11867;51.198;11.966;2022-08-19T23:16:55;10.57;;;8.60;;
23388;SDS011;11867;51.198;11.966;2022-08-19T23:22:00;12.35;;;8.80;;
23388;SDS011;11867;51.198;11.966;2022-08-19T23:27:05;9.60;;;8.43;;
23388;SDS011;11867;51.198;11.966;2022-08-19T23:32:32;9.60;;;8.70;;
23388;SDS011;11867;51.198;11.966;2022-08-19T23:37:37;9.52;;;8.63;;
23388;SDS011;11867;51.198;11.966;2022-08-19T23:42:40;10.45;;;8.32;;
23388;SDS011;11867;51.198;11.966;2022-08-19T23:47:44;8.85;;;7.93;;
23388;SDS011;11867;51.198;11.966;2022-08-19T23:52:49;9.50;;;8.47;;
23388;SDS011;11867;51.198;11.966;2022-08-19T23:57:54;12.80;;;8.52;;
